createdAt,value
2019-05-10T00:01:10.477Z,48.23
2019-05-10T00:03:56.976Z,45.80
2019-05-10T00:06:43.455Z,44.27
2019-05-10T00:09:11.737Z,40.73
2019-05-10T00:11:49.423Z,38.28
2019-05-10T00:14:25.855Z,38.35
2019-05-10T00:16:56.175Z,37.60
2019-05-10T00:19:24.896Z,36.85
2019-05-10T00:21:53.716Z,39.23
2019-05-10T00:24:22.475Z,38.88
2019-05-10T00:26:51.217Z,46.73
2019-05-10T00:29:20.098Z,48.17
2019-05-10T00:31:48.838Z,45.20
2019-05-10T00:34:17.655Z,43.23
2019-05-10T00:36:46.399Z,41.10
2019-05-10T00:39:15.135Z,38.48
2019-05-10T00:41:43.915Z,37.73
2019-05-10T00:44:12.716Z,39.38
2019-05-10T00:46:41.476Z,40.38
2019-05-10T00:49:10.237Z,43.15
2019-05-10T00:51:38.994Z,41.28
2019-05-10T00:54:07.756Z,39.75
2019-05-10T00:56:36.555Z,42.73
2019-05-10T00:59:05.315Z,41.55
2019-05-10T01:01:34.076Z,38.30
2019-05-10T01:04:02.835Z,39.98
2019-05-10T01:06:31.556Z,37.67
2019-05-10T01:09:00.375Z,34.43
2019-05-10T01:11:29.197Z,40.25
2019-05-10T01:13:57.955Z,41.28
2019-05-10T01:16:26.838Z,44.90
2019-05-10T01:18:55.635Z,48.80
2019-05-10T01:21:24.377Z,35.03
2019-05-10T01:23:53.117Z,36.17
2019-05-10T01:26:21.875Z,39.33
2019-05-10T01:28:50.617Z,33.50
2019-05-10T01:31:19.476Z,32.03
2019-05-10T01:33:48.239Z,35.20
2019-05-10T01:36:17.035Z,35.08
2019-05-10T01:38:45.757Z,28.87
2019-05-10T01:41:14.518Z,28.52
2019-05-10T01:43:43.316Z,27.10
2019-05-10T01:46:12.036Z,21.52
2019-05-10T01:48:40.817Z,24.32
2019-05-10T01:51:09.576Z,26.10
2019-05-10T01:53:38.295Z,22.37
2019-05-10T01:56:07.117Z,22.50
2019-05-10T01:58:35.815Z,28.83
2019-05-10T02:01:04.543Z,30.08
2019-05-10T02:03:33.355Z,25.02
2019-05-10T02:06:02.095Z,25.50
2019-05-10T02:08:30.855Z,23.42
2019-05-10T02:10:59.643Z,27.15
2019-05-10T02:13:28.355Z,23.42
2019-05-10T02:15:57.177Z,25.00
2019-05-10T02:18:25.939Z,24.67
2019-05-10T02:20:54.716Z,27.55
2019-05-10T02:23:23.543Z,23.65
2019-05-10T02:26:08.415Z,23.80
2019-05-10T02:28:22.859Z,22.55
2019-05-10T02:30:51.636Z,24.15
2019-05-10T02:33:20.397Z,22.85
2019-05-10T02:35:49.197Z,25.27
2019-05-10T02:38:17.916Z,28.00
2019-05-10T02:40:46.657Z,23.67
2019-05-10T02:43:15.456Z,27.05
2019-05-10T02:45:44.197Z,25.62
2019-05-10T02:48:12.938Z,30.05
2019-05-10T02:50:41.719Z,25.65
2019-05-10T02:53:10.715Z,27.82
2019-05-10T02:55:39.733Z,23.27
2019-05-10T02:58:08.656Z,25.12
2019-05-10T03:00:40.316Z,24.75
2019-05-10T03:03:11.238Z,25.45
2019-05-10T03:05:47.834Z,24.43
2019-05-10T03:08:15.537Z,22.22
2019-05-10T03:10:49.957Z,22.45
2019-05-10T03:13:21.661Z,25.88
2019-05-10T03:15:52.563Z,28.80
2019-05-10T03:18:23.477Z,23.30
2019-05-10T03:20:55.158Z,26.23
2019-05-10T03:23:26.316Z,26.10
2019-05-10T03:25:55.079Z,26.30
2019-05-10T03:28:23.836Z,28.55
2019-05-10T03:30:52.621Z,21.25
2019-05-10T03:33:21.377Z,30.30
2019-05-10T03:35:50.227Z,24.65
2019-05-10T03:38:19.017Z,24.57
2019-05-10T03:40:47.877Z,24.57
2019-05-10T03:43:16.658Z,23.87
2019-05-10T03:45:45.461Z,25.17
2019-05-10T03:48:14.206Z,25.27
2019-05-10T03:50:42.980Z,22.02
2019-05-10T03:53:11.755Z,22.80
2019-05-10T03:55:40.479Z,20.00
2019-05-10T03:58:09.276Z,19.30
2019-05-10T04:00:38.017Z,22.42
2019-05-10T04:03:06.838Z,22.50
2019-05-10T04:05:35.783Z,22.77
2019-05-10T04:08:04.626Z,21.33
2019-05-10T04:10:33.380Z,27.17
2019-05-10T04:13:02.121Z,28.87
2019-05-10T04:15:30.900Z,32.60
2019-05-10T04:17:59.643Z,23.85
2019-05-10T04:20:28.465Z,29.82
2019-05-10T04:22:57.217Z,28.62
2019-05-10T04:25:25.917Z,28.40
2019-05-10T04:27:54.701Z,31.27
2019-05-10T04:30:23.558Z,32.05
2019-05-10T04:32:52.337Z,31.02
2019-05-10T04:35:21.102Z,31.20
2019-05-10T04:37:49.896Z,32.60
2019-05-10T04:40:18.679Z,33.28
2019-05-10T04:42:47.578Z,32.33
2019-05-10T04:45:16.476Z,36.38
2019-05-10T04:47:45.226Z,37.20
2019-05-10T04:50:13.999Z,38.38
2019-05-10T04:52:42.777Z,38.30
2019-05-10T04:55:11.576Z,39.38
2019-05-10T04:57:49.748Z,36.45
2019-05-10T05:00:11.236Z,36.10
2019-05-10T05:02:40.017Z,37.78
2019-05-10T05:05:08.778Z,35.63
2019-05-10T05:07:37.575Z,32.85
2019-05-10T05:10:07.815Z,35.52
2019-05-10T05:12:36.515Z,34.45
2019-05-10T05:15:09.217Z,33.58
2019-05-10T05:17:37.977Z,33.98
2019-05-10T05:20:06.800Z,33.70
2019-05-10T05:22:35.558Z,30.55
2019-05-10T05:25:06.195Z,30.88
2019-05-10T05:27:34.976Z,31.70
2019-05-10T05:30:07.659Z,30.80
2019-05-10T05:32:38.766Z,32.35
2019-05-10T05:35:07.177Z,28.50
2019-05-10T05:37:35.978Z,26.12
2019-05-10T05:40:06.755Z,26.37
2019-05-10T05:42:35.577Z,23.57
2019-05-10T05:45:06.249Z,22.77
2019-05-10T05:47:37.692Z,24.47
2019-05-10T05:50:08.875Z,20.27
2019-05-10T05:52:37.615Z,17.98
2019-05-10T05:55:09.775Z,19.77
2019-05-10T05:57:38.541Z,17.62
2019-05-10T06:00:07.597Z,15.93
2019-05-10T06:02:44.360Z,16.32
2019-05-10T06:05:06.856Z,16.90
2019-05-10T06:07:38.009Z,15.68
2019-05-10T06:10:10.250Z,17.48
2019-05-10T06:12:37.916Z,13.85
2019-05-10T06:15:07.876Z,17.67
2019-05-10T06:17:36.705Z,16.97
2019-05-10T06:20:08.376Z,14.15
2019-05-10T06:22:38.265Z,15.00
2019-05-10T06:25:08.426Z,14.35
2019-05-10T06:27:41.132Z,16.17
2019-05-10T06:30:07.996Z,14.47
2019-05-10T06:32:36.800Z,13.13
2019-05-10T06:35:07.156Z,18.02
2019-05-10T06:37:36.256Z,12.30
2019-05-10T06:40:06.558Z,13.22
2019-05-10T06:42:36.224Z,12.43
2019-05-10T06:45:14.413Z,14.38
2019-05-10T06:47:42.131Z,13.58
2019-05-10T06:50:08.514Z,15.13
2019-05-10T06:52:37.309Z,14.60
2019-05-10T06:55:07.961Z,15.55
2019-05-10T06:57:36.776Z,15.35
2019-05-10T07:00:08.057Z,12.73
2019-05-10T07:02:37.017Z,12.00
2019-05-10T07:05:06.004Z,12.63
2019-05-10T07:07:44.212Z,11.97
2019-05-10T07:10:15.721Z,13.15
2019-05-10T07:12:38.987Z,13.83
2019-05-10T07:15:09.175Z,13.15
2019-05-10T07:17:45.407Z,13.93
2019-05-10T07:20:09.356Z,13.32
2019-05-10T07:22:38.176Z,12.55
2019-05-10T07:25:07.844Z,12.73
2019-05-10T07:27:38.515Z,11.00
2019-05-10T07:30:07.785Z,8.28
2019-05-10T07:32:36.506Z,7.78
2019-05-10T07:35:06.716Z,8.18
2019-05-10T07:37:35.875Z,7.60
2019-05-10T07:40:07.049Z,7.00
2019-05-10T07:42:39.703Z,5.80
2019-05-10T07:45:07.357Z,5.55
2019-05-10T07:47:36.178Z,5.47
2019-05-10T07:50:09.897Z,6.20
2019-05-10T07:52:43.393Z,4.45
2019-05-10T07:55:10.519Z,6.80
2019-05-10T07:57:38.976Z,5.33
2019-05-10T08:00:08.277Z,6.00
2019-05-10T08:02:37.035Z,5.80
2019-05-10T08:05:10.906Z,7.20
2019-05-10T08:07:38.748Z,6.62
2019-05-10T08:10:08.779Z,6.62
2019-05-10T08:12:43.768Z,7.20
2019-05-10T08:15:09.975Z,6.08
2019-05-10T08:17:41.003Z,5.87
2019-05-10T08:20:22.126Z,6.45
2019-05-10T08:22:45.632Z,6.90
2019-05-10T08:25:12.688Z,6.83
2019-05-10T08:27:49.764Z,5.72
2019-05-10T08:30:28.052Z,7.03
2019-05-10T08:32:42.702Z,6.50
2019-05-10T08:35:16.859Z,6.12
2019-05-10T08:37:43.262Z,4.97
2019-05-10T08:40:12.917Z,4.95
2019-05-10T08:42:48.156Z,4.85
2019-05-10T08:45:12.687Z,4.45
2019-05-10T08:47:42.682Z,5.33
2019-05-10T08:50:28.850Z,5.30
2019-05-10T08:52:42.665Z,4.55
2019-05-10T08:55:12.315Z,4.70
2019-05-10T08:57:44.369Z,4.40
2019-05-10T09:00:13.022Z,4.50
2019-05-10T09:02:42.825Z,4.60
2019-05-10T09:05:12.426Z,4.70
2019-05-10T09:07:42.918Z,5.05
2019-05-10T09:10:13.108Z,4.62
2019-05-10T09:12:51.020Z,4.60
2019-05-10T09:15:13.500Z,4.08
2019-05-10T09:17:43.161Z,3.92
2019-05-10T09:20:20.752Z,4.05
2019-05-10T09:22:44.277Z,4.00
2019-05-10T09:25:13.720Z,3.50
2019-05-10T09:27:43.258Z,4.25
2019-05-10T09:30:18.300Z,4.62
2019-05-10T09:32:43.895Z,4.20
2019-05-10T09:35:13.139Z,4.60
2019-05-10T09:37:42.270Z,5.08
2019-05-10T09:40:13.339Z,5.40
2019-05-10T09:42:43.588Z,5.22
2019-05-10T09:45:13.032Z,5.30
2019-05-10T09:47:43.396Z,5.20
2019-05-10T09:50:12.977Z,4.92
2019-05-10T09:52:41.806Z,5.67
2019-05-10T09:55:14.688Z,4.30
2019-05-10T09:57:41.116Z,4.60
2019-05-10T10:00:11.739Z,4.75
2019-05-10T10:02:40.989Z,4.80
2019-05-10T10:05:10.037Z,4.70
2019-05-10T10:07:38.836Z,4.47
2019-05-10T10:10:12.670Z,4.30
2019-05-10T10:12:38.416Z,5.80
2019-05-10T10:15:09.566Z,5.00
2019-05-10T10:17:42.142Z,4.40
2019-05-10T10:20:08.675Z,4.08
2019-05-10T10:22:38.234Z,4.15
2019-05-10T10:25:07.645Z,4.45
2019-05-10T10:27:39.361Z,4.92
2019-05-10T10:30:12.795Z,5.67
2019-05-10T10:32:39.739Z,6.10
2019-05-10T10:35:13.149Z,5.62
2019-05-10T10:37:39.115Z,5.00
2019-05-10T10:40:08.901Z,5.65
2019-05-10T10:42:38.328Z,6.45
2019-05-10T10:45:10.375Z,11.18
2019-05-10T10:47:39.184Z,6.12
2019-05-10T10:50:13.151Z,5.60
2019-05-10T10:52:39.237Z,7.72
2019-05-10T10:55:11.931Z,6.50
2019-05-10T10:57:40.196Z,7.90
2019-05-10T11:00:11.036Z,9.00
2019-05-10T11:02:41.661Z,9.33
2019-05-10T11:05:10.476Z,9.80
2019-05-10T11:07:44.275Z,11.90
2019-05-10T11:10:16.185Z,68.37
2019-05-10T11:12:41.400Z,12.40
2019-05-10T11:15:11.448Z,8.73
2019-05-10T11:17:40.880Z,23.50
2019-05-10T11:20:11.509Z,21.07
2019-05-10T11:22:42.048Z,9.65
2019-05-10T11:25:12.921Z,8.83
2019-05-10T11:27:41.995Z,10.63
2019-05-10T11:30:12.333Z,10.88
2019-05-10T11:32:42.008Z,9.43
2019-05-10T11:35:12.017Z,10.48
2019-05-10T11:37:45.385Z,8.25
2019-05-10T11:40:18.072Z,6.90
2019-05-10T11:42:47.285Z,6.75
2019-05-10T11:45:14.132Z,7.78
2019-05-10T11:47:42.857Z,9.05
2019-05-10T11:50:27.368Z,11.03
2019-05-10T11:52:42.596Z,7.87
2019-05-10T11:55:12.501Z,7.12
2019-05-10T11:57:44.181Z,6.15
2019-05-10T12:03:01.756Z,5.75
2019-05-10T12:05:19.963Z,5.62
2019-05-10T12:07:46.061Z,4.55
2019-05-10T12:10:20.180Z,4.50
2019-05-10T12:12:59.852Z,5.40
2019-05-10T12:15:15.255Z,6.53
2019-05-10T12:17:47.654Z,7.10
2019-05-10T12:22:47.582Z,6.92
2019-05-10T12:25:36.073Z,6.42
2019-05-10T12:26:17.889Z,26.48
2019-05-10T12:26:18.917Z,5.65
2019-05-10T12:27:49.143Z,4.78
2019-05-10T12:30:17.555Z,6.15
2019-05-10T12:32:55.723Z,5.53
2019-05-10T12:35:16.936Z,5.45
2019-05-10T12:37:51.354Z,4.87
2019-05-10T12:40:16.176Z,5.65
2019-05-10T12:42:47.155Z,3.60
2019-05-10T12:45:16.236Z,3.62
2019-05-10T12:47:45.044Z,4.03
2019-05-10T12:50:14.504Z,3.35
2019-05-10T12:52:43.545Z,3.52
2019-05-10T12:55:13.936Z,4.00
2019-05-10T12:57:43.624Z,2.10
2019-05-10T13:00:15.586Z,2.17
2019-05-10T13:02:44.682Z,1.90
2019-05-10T13:05:15.549Z,2.40
2019-05-10T13:07:44.654Z,2.25
2019-05-10T13:10:13.915Z,2.47
2019-05-10T13:12:46.820Z,2.50
2019-05-10T13:15:13.637Z,2.40
2019-05-10T13:17:50.417Z,2.77
2019-05-10T13:20:13.675Z,3.15
2019-05-10T13:22:42.457Z,3.50
2019-05-10T13:25:11.356Z,2.87
2019-05-10T13:27:40.116Z,3.20
2019-05-10T13:30:10.777Z,2.70
2019-05-10T13:32:39.604Z,3.22
2019-05-10T13:35:08.465Z,2.72
2019-05-10T13:37:37.216Z,7.25
2019-05-10T13:40:09.377Z,2.75
2019-05-10T13:42:43.086Z,2.00
2019-05-10T13:45:08.982Z,1.80
2019-05-10T13:47:37.787Z,2.00
2019-05-10T13:50:08.356Z,2.00
2019-05-10T13:52:38.906Z,2.08
2019-05-10T13:55:08.136Z,1.92
2019-05-10T13:57:36.897Z,2.60
2019-05-10T14:00:07.904Z,2.30
2019-05-10T14:02:36.707Z,1.70
2019-05-10T14:05:06.552Z,2.05
2019-05-10T14:07:35.336Z,2.60
2019-05-10T14:10:04.784Z,2.10
2019-05-10T14:12:33.616Z,3.45
2019-05-10T14:15:08.339Z,3.20
2019-05-10T14:17:32.898Z,3.30
2019-05-10T14:20:01.711Z,3.62
2019-05-10T14:22:30.616Z,3.25
2019-05-10T14:24:59.422Z,3.35
2019-05-10T14:27:29.776Z,3.25
2019-05-10T14:29:58.698Z,3.05
2019-05-10T14:32:27.495Z,3.20
2019-05-10T14:34:56.337Z,3.42
2019-05-10T14:37:25.121Z,3.10
2019-05-10T14:39:53.984Z,7.92
2019-05-10T14:42:30.840Z,15.48
2019-05-10T14:44:53.298Z,7.70
2019-05-10T14:47:22.050Z,4.40
2019-05-10T14:49:50.776Z,4.70
2019-05-10T14:52:22.387Z,5.03
2019-05-10T14:54:55.239Z,3.90
2019-05-10T14:57:20.555Z,3.75
2019-05-10T14:59:49.376Z,3.00
2019-05-10T15:02:22.945Z,3.08
2019-05-10T15:04:48.591Z,2.67
2019-05-10T15:07:17.385Z,3.10
2019-05-10T15:09:46.257Z,4.22
2019-05-10T15:12:16.357Z,4.30
2019-05-10T15:14:45.560Z,4.75
2019-05-10T15:17:14.415Z,3.20
2019-05-10T15:19:55.732Z,2.40
2019-05-10T15:22:18.519Z,2.55
2019-05-10T15:24:44.119Z,2.72
2019-05-10T15:27:16.111Z,2.55
2019-05-10T15:29:43.496Z,2.50
2019-05-10T15:32:12.255Z,2.02
2019-05-10T15:34:41.056Z,2.20
2019-05-10T15:37:10.761Z,2.50
2019-05-10T15:39:39.737Z,2.15
2019-05-10T15:42:08.540Z,1.70
2019-05-10T15:44:37.339Z,1.80
2019-05-10T15:47:06.151Z,1.87
2019-05-10T15:49:35.057Z,1.60
2019-05-10T15:52:16.963Z,1.82
2019-05-10T15:54:38.182Z,1.70
2019-05-10T15:57:04.841Z,2.27
2019-05-10T15:59:33.589Z,2.22
2019-05-10T16:02:02.370Z,2.20
2019-05-10T16:04:31.183Z,1.77
2019-05-10T16:06:59.975Z,1.90
2019-05-10T16:09:28.743Z,2.25
2019-05-10T16:12:01.899Z,2.47
2019-05-10T16:14:33.143Z,2.60
2019-05-10T16:16:58.656Z,2.15
2019-05-10T16:19:27.502Z,2.58
2019-05-10T16:21:58.109Z,2.87
2019-05-10T16:24:28.096Z,3.60
2019-05-10T16:27:00.049Z,3.20
2019-05-10T16:29:27.657Z,3.15
2019-05-10T16:31:56.497Z,3.25
2019-05-10T16:34:26.379Z,4.37
2019-05-10T16:36:55.777Z,4.10
2019-05-10T16:39:24.576Z,3.92
2019-05-10T16:41:53.325Z,4.30
2019-05-10T16:44:22.226Z,7.28
2019-05-10T16:46:51.096Z,8.75
2019-05-10T16:49:19.896Z,6.92
2019-05-10T16:51:49.975Z,6.70
2019-05-10T16:54:25.061Z,7.45
2019-05-10T16:56:51.587Z,7.87
2019-05-10T16:59:24.406Z,8.05
2019-05-10T17:01:50.518Z,6.72
2019-05-10T17:04:19.418Z,8.45
2019-05-10T17:06:48.215Z,9.25
2019-05-10T17:09:18.759Z,8.98
2019-05-10T17:11:48.669Z,11.08
2019-05-10T17:14:18.297Z,10.58
2019-05-10T17:16:49.493Z,14.95
2019-05-10T17:19:18.681Z,8.38
2019-05-10T17:21:47.456Z,9.05
2019-05-10T17:24:18.668Z,9.23
2019-05-10T17:26:46.880Z,8.75
2019-05-10T17:29:15.736Z,9.35
2019-05-10T17:31:45.740Z,9.23
2019-05-10T17:34:22.115Z,9.65
2019-05-10T17:36:45.457Z,9.13
2019-05-10T17:39:14.255Z,9.40
2019-05-10T17:41:43.057Z,9.60
2019-05-10T17:44:11.895Z,9.23
2019-05-10T17:46:40.656Z,10.85
2019-05-10T17:49:09.456Z,10.00
2019-05-10T17:51:38.255Z,9.88
2019-05-10T17:54:07.058Z,10.70
2019-05-10T17:56:38.861Z,11.65
2019-05-10T17:59:11.996Z,10.30
2019-05-10T18:01:36.900Z,11.10
2019-05-10T18:04:05.638Z,10.30
2019-05-10T18:06:34.456Z,13.93
2019-05-10T18:09:03.296Z,14.68
2019-05-10T18:11:36.757Z,10.48
2019-05-10T18:14:02.815Z,9.95
2019-05-10T18:16:31.575Z,9.33
2019-05-10T18:19:00.381Z,12.23
2019-05-10T18:21:29.215Z,10.03
2019-05-10T18:23:58.624Z,9.05
2019-05-10T18:26:28.535Z,10.20
2019-05-10T18:28:57.337Z,10.35
2019-05-10T18:31:26.137Z,12.53
2019-05-10T18:33:56.011Z,12.65
2019-05-10T18:36:50.005Z,12.58
2019-05-10T18:38:55.417Z,11.12
2019-05-10T18:41:24.257Z,10.25
2019-05-10T18:43:53.034Z,11.35
2019-05-10T18:46:24.470Z,11.43
2019-05-10T18:48:52.304Z,10.25
2019-05-10T18:51:24.527Z,10.68
2019-05-10T18:53:51.587Z,10.10
2019-05-10T18:56:25.278Z,9.70
2019-05-10T18:58:50.897Z,9.73
2019-05-10T19:01:19.821Z,10.00
2019-05-10T19:03:48.583Z,9.33
2019-05-10T19:06:17.421Z,8.23
2019-05-10T19:08:46.223Z,8.45
2019-05-10T19:11:15.039Z,10.10
2019-05-10T19:13:47.868Z,10.48
2019-05-10T19:16:14.454Z,11.40
2019-05-10T19:18:43.305Z,12.07
2019-05-10T19:21:12.103Z,13.55
2019-05-10T19:23:40.864Z,13.75
2019-05-10T19:26:09.665Z,14.68
2019-05-10T19:28:38.461Z,14.28
2019-05-10T19:31:07.302Z,12.15
2019-05-10T19:33:38.082Z,12.40
2019-05-10T19:36:12.157Z,14.20
2019-05-10T19:38:37.427Z,15.08
2019-05-10T19:41:06.261Z,15.70
2019-05-10T19:43:35.143Z,13.90
2019-05-10T19:46:03.943Z,13.98
2019-05-10T19:48:35.749Z,12.25
2019-05-10T19:51:09.739Z,11.70
2019-05-10T19:53:36.493Z,11.97
2019-05-10T19:56:04.390Z,11.05
2019-05-10T19:58:34.049Z,10.38
2019-05-10T20:01:03.063Z,8.28
2019-05-10T20:03:31.862Z,8.25
2019-05-10T20:06:00.622Z,8.40
2019-05-10T20:08:29.462Z,7.65
2019-05-10T20:10:58.222Z,7.50
2019-05-10T20:13:27.387Z,7.83
2019-05-10T20:15:56.310Z,8.98
2019-05-10T20:18:25.142Z,8.58
2019-05-10T20:20:53.902Z,8.75
2019-05-10T20:23:22.702Z,9.15
2019-05-10T20:25:51.461Z,9.45
2019-05-10T20:28:20.304Z,10.15
2019-05-10T20:30:49.181Z,10.38
2019-05-10T20:33:17.912Z,11.25
2019-05-10T20:35:46.745Z,11.22
2019-05-10T20:38:15.502Z,11.25
2019-05-10T20:40:44.304Z,11.48
2019-05-10T20:43:13.184Z,12.03
2019-05-10T20:45:41.982Z,12.50
2019-05-10T20:48:10.832Z,12.37
2019-05-10T20:50:39.625Z,13.08
2019-05-10T20:53:08.462Z,12.68
2019-05-10T20:55:37.292Z,12.75
2019-05-10T20:58:06.265Z,13.95
2019-05-10T21:00:35.128Z,14.80
2019-05-10T21:03:04.544Z,15.85
2019-05-10T21:05:33.383Z,15.00
2019-05-10T21:08:16.050Z,16.30
2019-05-10T21:10:32.772Z,16.62
2019-05-10T21:13:01.554Z,17.65
2019-05-10T21:15:30.346Z,16.67
2019-05-10T21:17:59.204Z,16.23
2019-05-10T21:20:28.014Z,15.72
2019-05-10T21:22:56.754Z,15.40
2019-05-10T21:25:25.584Z,14.95
2019-05-10T21:27:54.424Z,13.70
2019-05-10T21:30:23.223Z,14.58
2019-05-10T21:32:52.030Z,13.85
2019-05-10T21:35:20.951Z,14.15
2019-05-10T21:37:49.824Z,13.10
2019-05-10T21:40:18.750Z,12.85
2019-05-10T21:42:47.543Z,14.28
2019-05-10T21:45:16.382Z,12.37
2019-05-10T21:47:51.726Z,12.95
2019-05-10T21:50:15.755Z,12.90
2019-05-10T21:52:44.542Z,12.65
2019-05-10T21:55:13.462Z,11.83
2019-05-10T21:57:42.221Z,11.08
2019-05-10T22:00:11.783Z,10.55
2019-05-10T22:02:40.612Z,10.10
2019-05-10T22:05:09.560Z,9.95
2019-05-10T22:07:38.432Z,10.85
2019-05-10T22:10:07.942Z,11.63
2019-05-10T22:12:36.742Z,12.50
2019-05-10T22:15:06.863Z,16.45
2019-05-10T22:17:35.631Z,14.87
2019-05-10T22:20:06.864Z,11.85
2019-05-10T22:22:35.621Z,12.60
2019-05-10T22:25:05.621Z,12.53
2019-05-10T22:27:34.462Z,13.13
2019-05-10T22:30:03.744Z,13.25
2019-05-10T22:32:32.503Z,13.68
2019-05-10T22:35:01.341Z,13.20
2019-05-10T22:37:30.195Z,11.50
2019-05-10T22:39:59.061Z,11.68
2019-05-10T22:42:27.844Z,12.13
2019-05-10T22:44:57.423Z,12.70
2019-05-10T22:47:26.262Z,13.72
2019-05-10T22:49:55.063Z,12.50
2019-05-10T22:52:23.790Z,11.85
2019-05-10T22:54:52.666Z,11.83
2019-05-10T22:57:21.463Z,11.03
2019-05-10T22:59:50.304Z,11.28
2019-05-10T23:02:19.139Z,11.68
2019-05-10T23:04:47.982Z,12.70
2019-05-10T23:07:16.902Z,14.15
2019-05-10T23:09:45.706Z,14.65
2019-05-10T23:12:14.504Z,15.50
2019-05-10T23:14:43.307Z,12.98
2019-05-10T23:17:12.144Z,11.40
2019-05-10T23:19:40.948Z,12.15
2019-05-10T23:22:09.824Z,10.72
2019-05-10T23:24:39.367Z,9.98
2019-05-10T23:27:08.664Z,9.63
2019-05-10T23:29:37.625Z,8.90
2019-05-10T23:32:06.392Z,8.90
2019-05-10T23:34:35.184Z,8.18
2019-05-10T23:37:03.969Z,8.20
2019-05-10T23:39:40.996Z,7.33
2019-05-10T23:42:03.346Z,8.40
2019-05-10T23:44:32.144Z,7.20
2019-05-10T23:47:00.905Z,6.92
2019-05-10T23:49:29.744Z,6.62
2019-05-10T23:51:58.506Z,7.40
2019-05-10T23:54:27.305Z,6.95
2019-05-10T23:56:56.145Z,6.95
2019-05-10T23:59:24.954Z,7.37
